createdAt,value
2018-12-27T00:00:06.101Z,21.87
2018-12-27T00:02:36.490Z,18.73
2018-12-27T00:05:06.476Z,18.47
2018-12-27T00:07:36.101Z,27.07
2018-12-27T00:10:06.285Z,17.63
2018-12-27T00:12:36.015Z,20.77
2018-12-27T00:15:05.797Z,21.03
2018-12-27T00:17:35.402Z,21.40
2018-12-27T00:20:05.326Z,19.27
2018-12-27T00:22:34.922Z,16.13
2018-12-27T00:25:05.281Z,21.10
2018-12-27T00:27:34.889Z,21.40
2018-12-27T00:30:05.260Z,25.35
2018-12-27T00:32:35.026Z,22.93
2018-12-27T00:35:05.200Z,24.50
2018-12-27T00:37:34.965Z,25.53
2018-12-27T00:40:05.222Z,24.25
2018-12-27T00:42:35.009Z,29.17
2018-12-27T00:45:05.189Z,22.50
2018-12-27T00:47:34.969Z,24.33
2018-12-27T00:50:05.230Z,22.37
2018-12-27T00:52:34.991Z,25.63
2018-12-27T00:55:05.232Z,27.20
2018-12-27T00:57:35.007Z,20.73
2018-12-27T01:00:05.233Z,23.00
2018-12-27T01:02:35.022Z,26.70
2018-12-27T01:05:05.201Z,30.97
2018-12-27T01:07:34.949Z,25.53
2018-12-27T01:10:05.225Z,29.95
2018-12-27T01:12:34.989Z,25.67
2018-12-27T01:15:05.278Z,25.02
2018-12-27T01:17:35.033Z,31.57
2018-12-27T01:20:05.214Z,26.37
2018-12-27T01:22:34.993Z,24.97
2018-12-27T01:25:05.238Z,31.93
2018-12-27T01:27:35.013Z,28.43
2018-12-27T01:30:05.284Z,31.97
2018-12-27T01:32:35.054Z,28.03
2018-12-27T01:35:05.186Z,32.05
2018-12-27T01:37:35.018Z,33.83
2018-12-27T01:40:05.128Z,37.63
2018-12-27T01:42:34.985Z,36.33
2018-12-27T01:45:05.447Z,36.05
2018-12-27T01:47:35.304Z,36.83
2018-12-27T01:50:05.247Z,36.33
2018-12-27T01:52:35.112Z,41.53
2018-12-27T01:55:05.225Z,42.27
2018-12-27T01:57:34.992Z,44.93
2018-12-27T02:00:05.256Z,38.28
2018-12-27T02:02:35.996Z,42.57
2018-12-27T02:05:05.745Z,43.87
2018-12-27T02:07:35.504Z,41.23
2018-12-27T02:10:05.320Z,48.77
2018-12-27T02:12:35.185Z,48.07
2018-12-27T02:15:05.393Z,48.35
2018-12-27T02:17:35.131Z,50.50
2018-12-27T02:20:05.198Z,51.13
2018-12-27T02:22:34.958Z,54.43
2018-12-27T02:25:05.492Z,58.80
2018-12-27T02:27:35.295Z,51.03
2018-12-27T02:30:12.641Z,56.30
2018-12-27T02:32:49.048Z,61.00
2018-12-27T02:35:47.921Z,53.10
2018-12-27T02:39:09.989Z,58.07
2018-12-27T02:42:32.167Z,59.53
2018-12-27T02:48:54.788Z,57.87
2018-12-27T02:51:41.723Z,61.27
2018-12-27T02:54:38.200Z,58.13
2018-12-27T02:57:26.338Z,74.97
2018-12-27T03:00:16.866Z,67.80
2018-12-27T03:03:13.008Z,67.87
2018-12-27T03:05:41.188Z,75.27
2018-12-27T03:08:17.437Z,69.80
2018-12-27T03:11:05.179Z,68.43
2018-12-27T03:13:34.835Z,76.53
2018-12-27T03:16:04.960Z,87.57
2018-12-27T03:18:34.718Z,85.43
2018-12-27T03:21:04.948Z,90.30
2018-12-27T03:23:34.703Z,77.80
2018-12-27T03:26:04.929Z,82.30
2018-12-27T03:28:34.745Z,81.03
2018-12-27T03:31:04.934Z,84.73
2018-12-27T03:33:34.699Z,89.77
2018-12-27T03:36:04.913Z,83.17
2018-12-27T03:38:34.714Z,91.70
2018-12-27T03:41:05.463Z,91.93
2018-12-27T03:43:35.250Z,102.87
2018-12-27T03:46:05.009Z,90.97
2018-12-27T03:48:35.278Z,107.80
2018-12-27T03:51:05.109Z,104.00
2018-12-27T03:53:34.886Z,98.73
2018-12-27T03:56:04.957Z,96.77
2018-12-27T03:58:34.709Z,91.77
2018-12-27T04:01:05.001Z,90.33
2018-12-27T04:03:34.758Z,93.73
2018-12-27T04:06:04.946Z,84.63
2018-12-27T04:08:34.706Z,71.70
2018-12-27T04:11:04.920Z,76.07
2018-12-27T04:13:34.685Z,73.30
2018-12-27T04:16:04.811Z,85.50
2018-12-27T04:18:34.426Z,73.57
2018-12-27T04:21:05.166Z,73.15
2018-12-27T04:23:35.018Z,70.37
2018-12-27T04:26:05.331Z,78.13
2018-12-27T04:28:34.921Z,76.97
2018-12-27T04:31:04.942Z,73.03
2018-12-27T04:33:35.086Z,73.80
2018-12-27T04:36:05.440Z,74.03
2018-12-27T04:38:35.109Z,65.37
2018-12-27T04:41:05.341Z,59.30
2018-12-27T04:43:36.081Z,69.30
2018-12-27T04:46:05.770Z,73.50
2018-12-27T04:48:35.692Z,63.57
2018-12-27T04:51:05.302Z,61.00
2018-12-27T04:53:34.985Z,60.37
2018-12-27T04:56:04.809Z,60.43
2018-12-27T04:58:34.424Z,60.13
2018-12-27T05:01:04.978Z,59.65
2018-12-27T05:03:34.655Z,51.50
2018-12-27T05:06:04.886Z,54.70
2018-12-27T05:08:34.577Z,57.80
2018-12-27T05:11:04.867Z,56.03
2018-12-27T05:13:34.523Z,53.37
2018-12-27T05:16:04.870Z,52.87
2018-12-27T05:18:34.549Z,49.10
2018-12-27T05:21:04.923Z,46.17
2018-12-27T05:23:35.625Z,45.87
2018-12-27T05:26:05.667Z,48.33
2018-12-27T05:28:35.328Z,39.07
2018-12-27T05:31:04.943Z,53.20
2018-12-27T05:33:34.570Z,54.83
2018-12-27T05:36:04.853Z,51.17
2018-12-27T05:38:34.578Z,48.10
2018-12-27T05:41:05.124Z,43.50
2018-12-27T05:43:34.842Z,47.07
2018-12-27T05:46:04.830Z,46.93
2018-12-27T05:48:34.645Z,38.53
2018-12-27T05:51:04.878Z,48.23
2018-12-27T05:53:34.494Z,40.53
2018-12-27T05:56:04.801Z,34.40
2018-12-27T05:58:34.444Z,40.20
2018-12-27T06:01:04.863Z,44.85
2018-12-27T06:03:34.555Z,47.43
2018-12-27T06:06:04.761Z,43.53
2018-12-27T06:08:34.405Z,44.17
2018-12-27T06:11:04.817Z,43.10
2018-12-27T06:13:34.425Z,40.27
2018-12-27T06:16:04.811Z,39.50
2018-12-27T06:18:34.435Z,47.10
2018-12-27T06:21:04.960Z,38.57
2018-12-27T06:23:34.561Z,40.63
2018-12-27T06:26:04.765Z,43.40
2018-12-27T06:28:36.418Z,49.17
2018-12-27T06:31:06.052Z,46.13
2018-12-27T06:33:35.679Z,39.00
2018-12-27T06:36:05.264Z,42.63
2018-12-27T06:38:34.877Z,41.43
2018-12-27T06:41:04.746Z,39.13
2018-12-27T06:43:34.369Z,39.87
2018-12-27T06:46:04.753Z,40.75
2018-12-27T06:48:34.355Z,45.43
2018-12-27T06:51:05.337Z,35.70
2018-12-27T06:53:34.956Z,36.90
2018-12-27T06:56:04.773Z,37.20
2018-12-27T06:58:37.803Z,38.53
2018-12-27T07:01:05.986Z,37.90
2018-12-27T07:03:35.624Z,34.30
2018-12-27T07:06:05.244Z,34.37
2018-12-27T07:08:34.858Z,41.93
2018-12-27T07:11:04.781Z,33.33
2018-12-27T07:13:34.383Z,40.50
2018-12-27T07:16:04.924Z,39.80
2018-12-27T07:18:34.741Z,36.23
2018-12-27T07:21:04.844Z,43.33
2018-12-27T07:23:34.440Z,32.97
2018-12-27T07:26:04.928Z,39.97
2018-12-27T07:28:35.827Z,41.43
2018-12-27T07:31:06.423Z,51.03
2018-12-27T07:33:36.031Z,39.00
2018-12-27T07:36:05.660Z,40.27
2018-12-27T07:38:35.273Z,42.30
2018-12-27T07:41:04.954Z,42.90
2018-12-27T07:43:34.637Z,42.43
2018-12-27T07:46:10.877Z,41.73
2018-12-27T07:48:36.320Z,40.80
2018-12-27T07:51:06.064Z,39.97
2018-12-27T07:53:35.833Z,45.13
2018-12-27T07:56:05.549Z,41.13
2018-12-27T07:58:35.272Z,37.20
2018-12-27T08:01:04.976Z,31.97
2018-12-27T08:03:35.546Z,35.80
2018-12-27T08:06:05.214Z,41.00
2018-12-27T08:08:34.958Z,38.73
2018-12-27T08:11:04.862Z,40.73
2018-12-27T08:13:34.542Z,42.17
2018-12-27T08:16:05.136Z,40.17
2018-12-27T08:18:34.969Z,40.57
2018-12-27T08:21:04.922Z,38.53
2018-12-27T08:23:34.646Z,43.00
2018-12-27T08:26:04.873Z,49.97
2018-12-27T08:28:34.834Z,42.50
2018-12-27T08:31:05.018Z,41.80
2018-12-27T08:33:34.794Z,40.57
2018-12-27T08:36:05.048Z,34.70
2018-12-27T08:38:34.717Z,32.80
2018-12-27T08:41:05.033Z,42.50
2018-12-27T08:43:34.799Z,43.13
2018-12-27T08:46:05.082Z,41.47
2018-12-27T08:48:34.806Z,43.80
2018-12-27T08:51:04.886Z,35.70
2018-12-27T08:53:34.568Z,46.33
2018-12-27T08:56:04.823Z,44.93
2018-12-27T08:58:34.539Z,41.93
2018-12-27T09:01:04.885Z,41.93
2018-12-27T09:03:34.657Z,41.23
2018-12-27T09:06:04.804Z,49.40
2018-12-27T09:08:34.525Z,46.63
2018-12-27T09:11:04.804Z,51.27
2018-12-27T09:13:34.444Z,44.17
2018-12-27T09:16:04.888Z,51.97
2018-12-27T09:18:34.596Z,49.87
2018-12-27T09:21:04.881Z,53.07
2018-12-27T09:23:35.601Z,51.93
2018-12-27T09:26:05.204Z,55.60
2018-12-27T09:28:34.843Z,62.07
2018-12-27T09:31:04.895Z,54.30
2018-12-27T09:33:34.805Z,55.43
2018-12-27T09:36:05.016Z,62.53
2018-12-27T09:38:34.676Z,57.17
2018-12-27T09:41:04.883Z,55.70
2018-12-27T09:43:34.886Z,49.30
2018-12-27T09:46:04.918Z,51.40
2018-12-27T09:48:34.682Z,59.97
2018-12-27T09:51:05.085Z,45.50
2018-12-27T09:53:34.977Z,47.07
2018-12-27T09:56:04.832Z,47.43
2018-12-27T09:58:37.259Z,53.47
2018-12-27T10:01:06.915Z,48.10
2018-12-27T10:03:36.605Z,46.00
2018-12-27T10:06:06.225Z,43.87
2018-12-27T10:08:36.123Z,52.37
2018-12-27T10:11:05.817Z,46.67
2018-12-27T10:13:35.426Z,44.03
2018-12-27T10:16:05.079Z,57.13
2018-12-27T10:18:34.924Z,41.53
2018-12-27T10:21:04.892Z,45.47
2018-12-27T10:23:34.606Z,53.93
2018-12-27T10:26:04.828Z,44.47
2018-12-27T10:28:34.525Z,38.60
2018-12-27T10:31:04.882Z,44.23
2018-12-27T10:33:34.580Z,45.67
2018-12-27T10:36:04.794Z,49.87
2018-12-27T10:38:34.512Z,52.93
2018-12-27T10:41:04.828Z,44.17
2018-12-27T10:43:34.522Z,52.47
2018-12-27T10:46:04.857Z,46.37
2018-12-27T10:48:34.765Z,51.30
2018-12-27T10:51:04.971Z,54.33
2018-12-27T10:53:34.600Z,45.53
2018-12-27T10:56:04.811Z,50.13
2018-12-27T10:58:34.452Z,50.73
2018-12-27T11:01:04.932Z,40.93
2018-12-27T11:03:34.576Z,45.83
2018-12-27T11:06:04.820Z,46.80
2018-12-27T11:08:34.532Z,43.93
2018-12-27T11:11:04.841Z,43.43
2018-12-27T11:13:34.546Z,51.87
2018-12-27T11:16:04.845Z,52.90
2018-12-27T11:18:34.453Z,45.10
2018-12-27T11:21:05.279Z,41.40
2018-12-27T11:23:34.945Z,53.80
2018-12-27T11:26:04.909Z,42.80
2018-12-27T11:28:34.592Z,48.73
2018-12-27T11:31:04.951Z,48.07
2018-12-27T11:33:34.659Z,45.77
2018-12-27T11:36:04.788Z,53.57
2018-12-27T11:38:34.459Z,46.90
2018-12-27T11:41:04.821Z,47.70
2018-12-27T11:43:34.537Z,51.57
2018-12-27T11:46:04.944Z,55.53
2018-12-27T11:48:34.612Z,62.37
2018-12-27T11:51:04.919Z,56.23
2018-12-27T11:53:34.601Z,55.43
2018-12-27T11:56:04.836Z,62.43
2018-12-27T11:58:34.655Z,59.90
2018-12-27T12:01:04.843Z,55.00
2018-12-27T12:03:34.488Z,58.40
2018-12-27T12:06:04.769Z,50.37
2018-12-27T12:08:34.431Z,59.70
2018-12-27T12:11:04.901Z,51.40
2018-12-27T12:13:34.635Z,52.90
2018-12-27T12:16:04.903Z,62.27
2018-12-27T12:18:34.626Z,64.40
2018-12-27T12:21:04.980Z,63.87
2018-12-27T12:23:34.668Z,62.13
2018-12-27T12:26:04.893Z,65.03
2018-12-27T12:28:34.510Z,61.50
2018-12-27T12:31:04.876Z,64.57
2018-12-27T12:33:34.532Z,57.37
2018-12-27T12:36:10.699Z,53.90
2018-12-27T12:38:37.259Z,58.50
2018-12-27T12:41:07.100Z,59.27
2018-12-27T12:43:36.697Z,62.87
2018-12-27T12:46:06.333Z,50.47
2018-12-27T12:48:37.708Z,57.20
2018-12-27T12:51:07.344Z,51.87
2018-12-27T12:53:36.926Z,60.87
2018-12-27T12:56:07.055Z,54.13
2018-12-27T12:58:36.695Z,53.47
2018-12-27T13:01:07.483Z,53.33
2018-12-27T13:03:37.224Z,56.37
2018-12-27T13:06:06.826Z,51.43
2018-12-27T13:08:36.440Z,48.80
2018-12-27T13:11:06.035Z,52.57
2018-12-27T13:13:35.653Z,54.70
2018-12-27T13:16:05.738Z,52.60
2018-12-27T13:18:35.393Z,53.77
2018-12-27T13:21:05.080Z,52.03
2018-12-27T13:23:34.790Z,60.40
2018-12-27T13:26:04.976Z,56.67
2018-12-27T13:28:34.653Z,57.40
2018-12-27T13:31:05.268Z,48.73
2018-12-27T13:33:34.978Z,53.33
2018-12-27T13:36:05.332Z,50.40
2018-12-27T13:38:35.018Z,48.90
2018-12-27T13:41:04.900Z,51.87
2018-12-27T13:43:34.733Z,46.70
2018-12-27T13:46:05.298Z,47.33
2018-12-27T13:48:35.116Z,59.00
2018-12-27T13:51:04.958Z,52.93
2018-12-27T13:53:34.692Z,53.23
2018-12-27T13:56:04.801Z,52.67
2018-12-27T13:58:34.433Z,61.77
2018-12-27T14:01:04.867Z,55.35
2018-12-27T14:03:34.577Z,55.30
2018-12-27T14:06:04.773Z,60.13
2018-12-27T14:08:34.541Z,65.63
2018-12-27T14:11:04.880Z,64.43
2018-12-27T14:13:34.671Z,73.57
2018-12-27T14:16:04.916Z,67.63
2018-12-27T14:18:34.624Z,68.00
2018-12-27T14:21:04.878Z,59.13
2018-12-27T14:23:34.573Z,58.80
2018-12-27T14:26:04.812Z,68.63
2018-12-27T14:28:34.516Z,62.17
2018-12-27T14:31:04.958Z,72.93
2018-12-27T14:33:34.674Z,72.90
2018-12-27T14:36:04.827Z,69.07
2018-12-27T14:38:34.887Z,64.97
2018-12-27T14:41:05.116Z,66.90
2018-12-27T14:43:34.819Z,79.97
2018-12-27T14:46:04.844Z,65.13
2018-12-27T14:48:34.454Z,69.70
2018-12-27T14:51:05.181Z,74.60
2018-12-27T14:53:34.802Z,73.87
2018-12-27T14:56:04.829Z,72.77
2018-12-27T14:58:34.599Z,69.03
2018-12-27T15:01:05.076Z,81.40
2018-12-27T15:03:34.861Z,66.97
2018-12-27T15:06:04.869Z,69.23
2018-12-27T15:08:35.616Z,81.30
2018-12-27T15:11:05.321Z,76.30
2018-12-27T15:13:34.944Z,77.43
2018-12-27T15:16:04.884Z,76.83
2018-12-27T15:18:34.542Z,74.30
2018-12-27T15:21:04.918Z,77.70
2018-12-27T15:23:34.620Z,77.33
2018-12-27T15:26:04.873Z,62.83
2018-12-27T15:28:34.521Z,61.23
2018-12-27T15:31:04.866Z,71.57
2018-12-27T15:33:34.544Z,58.67
2018-12-27T15:36:04.797Z,66.40
2018-12-27T15:38:34.470Z,71.77
2018-12-27T15:41:04.846Z,56.80
2018-12-27T15:43:34.506Z,68.03
2018-12-27T15:46:04.877Z,67.73
2018-12-27T15:48:34.557Z,65.07
2018-12-27T15:51:05.106Z,60.30
2018-12-27T15:53:35.068Z,59.47
2018-12-27T15:56:04.808Z,52.37
2018-12-27T15:58:34.420Z,51.47
2018-12-27T16:01:04.915Z,60.38
2018-12-27T16:03:34.561Z,56.10
2018-12-27T16:06:04.885Z,60.37
2018-12-27T16:08:34.501Z,51.33
2018-12-27T16:11:04.831Z,54.93
2018-12-27T16:13:34.523Z,57.17
2018-12-27T16:16:04.964Z,51.73
2018-12-27T16:18:34.988Z,54.83
2018-12-27T16:21:05.119Z,57.40
2018-12-27T16:23:35.025Z,45.70
2018-12-27T16:26:05.111Z,49.37
2018-12-27T16:28:34.965Z,49.03
2018-12-27T16:31:05.088Z,52.20
2018-12-27T16:33:34.844Z,50.37
2018-12-27T16:36:04.910Z,55.93
2018-12-27T16:38:34.696Z,56.43
2018-12-27T16:41:04.979Z,52.90
2018-12-27T16:43:36.534Z,50.07
2018-12-27T16:46:06.462Z,46.77
2018-12-27T16:48:36.517Z,43.27
2018-12-27T16:51:06.495Z,43.90
2018-12-27T16:53:36.238Z,45.23
2018-12-27T16:56:05.950Z,62.77
2018-12-27T16:58:35.681Z,53.47
2018-12-27T17:01:05.343Z,69.07
2018-12-27T17:03:34.974Z,53.17
2018-12-27T17:06:05.902Z,63.57
2018-12-27T17:08:35.528Z,61.27
2018-12-27T17:11:05.219Z,67.50
2018-12-27T17:13:34.845Z,63.10
2018-12-27T17:16:04.805Z,55.37
2018-12-27T17:18:35.501Z,67.17
2018-12-27T17:21:05.174Z,54.67
2018-12-27T17:23:35.824Z,69.20
2018-12-27T17:26:05.518Z,64.83
2018-12-27T17:28:35.381Z,63.67
2018-12-27T17:31:05.172Z,52.33
2018-12-27T17:33:35.093Z,60.60
2018-12-27T17:36:05.123Z,56.90
2018-12-27T17:38:34.954Z,62.73
2018-12-27T17:41:04.974Z,61.03
2018-12-27T17:43:35.079Z,60.37
2018-12-27T17:46:07.996Z,63.07
2018-12-27T17:48:37.861Z,62.97
2018-12-27T17:51:13.166Z,58.80
2018-12-27T17:53:43.056Z,52.97
2018-12-27T17:56:12.765Z,62.33
2018-12-27T17:58:42.414Z,54.73
2018-12-27T18:01:12.262Z,57.90
2018-12-27T18:03:42.320Z,60.27
2018-12-27T18:06:12.079Z,73.13
2018-12-27T18:08:42.056Z,61.87
2018-12-27T18:11:12.024Z,65.32
2018-12-27T18:13:45.078Z,74.90
2018-12-27T18:16:16.522Z,63.85
2018-12-27T18:18:46.155Z,55.13
2018-12-27T18:21:16.865Z,62.70
2018-12-27T18:23:46.585Z,60.57
2018-12-27T18:26:16.287Z,64.32
2018-12-27T18:28:46.172Z,72.83
2018-12-27T18:31:15.893Z,76.23
2018-12-27T18:33:45.606Z,86.20
2018-12-27T18:36:15.303Z,94.70
2018-12-27T18:38:45.046Z,94.43
2018-12-27T18:41:14.744Z,105.95
2018-12-27T18:43:44.754Z,74.97
2018-12-27T18:46:14.468Z,67.67
2018-12-27T18:48:44.176Z,66.93
2018-12-27T18:51:13.865Z,58.85
2018-12-27T18:53:43.538Z,66.50
2018-12-27T18:56:13.179Z,73.07
2018-12-27T18:58:42.822Z,72.13
2018-12-27T19:01:12.541Z,80.15
2018-12-27T19:03:43.278Z,72.30
2018-12-27T19:06:12.865Z,65.87
2018-12-27T19:08:42.643Z,79.47
2018-12-27T19:11:48.436Z,77.65
2018-12-27T19:14:18.143Z,65.40
2018-12-27T19:16:47.836Z,71.20
2018-12-27T19:19:17.471Z,65.03
2018-12-27T19:22:18.529Z,60.67
2018-12-27T19:24:48.233Z,71.07
2018-12-27T19:27:17.918Z,63.23
2018-12-27T19:29:47.656Z,59.37
2018-12-27T19:32:17.438Z,65.63
2018-12-27T19:34:47.217Z,51.73
2018-12-27T19:37:16.941Z,58.95
2018-12-27T19:39:51.002Z,62.90
2018-12-27T19:42:25.736Z,52.17
2018-12-27T19:44:53.080Z,55.00
2018-12-27T19:47:22.985Z,56.20
2018-12-27T19:49:52.642Z,56.00
2018-12-27T19:52:27.780Z,45.17
2018-12-27T19:55:07.376Z,53.87
2018-12-27T19:57:37.044Z,49.23
2018-12-27T20:00:07.205Z,59.60
2018-12-27T20:02:50.222Z,60.10
2018-12-27T20:05:20.173Z,58.98
2018-12-27T20:07:49.821Z,59.97
2018-12-27T20:10:19.455Z,57.10
2018-12-27T20:12:49.244Z,57.07
2018-12-27T20:15:19.777Z,55.43
2018-12-27T20:17:56.581Z,65.90
2018-12-27T20:20:29.641Z,56.63
2018-12-27T20:23:23.401Z,57.67
2018-12-27T20:25:54.461Z,56.10
2018-12-27T20:28:24.151Z,55.47
2018-12-27T20:30:53.768Z,52.00
2018-12-27T20:33:23.545Z,61.63
2018-12-27T20:35:53.401Z,57.33
2018-12-27T20:38:23.041Z,57.83
2018-12-27T20:40:52.728Z,68.53
2018-12-27T20:43:22.426Z,55.23
2018-12-27T20:45:52.138Z,57.27
2018-12-27T20:48:21.876Z,49.70
2018-12-27T20:50:51.553Z,56.97
2018-12-27T20:53:21.182Z,49.43
2018-12-27T20:55:50.964Z,51.40
2018-12-27T20:58:21.608Z,55.93
2018-12-27T21:00:51.202Z,56.50
2018-12-27T21:03:20.993Z,48.63
2018-12-27T21:05:50.629Z,69.90
2018-12-27T21:08:20.242Z,54.03
2018-12-27T21:10:49.967Z,43.77
2018-12-27T21:13:19.655Z,54.20
2018-12-27T21:15:49.287Z,45.87
2018-12-27T21:18:18.980Z,51.27
2018-12-27T21:20:48.680Z,50.27
2018-12-27T21:23:26.610Z,53.97
2018-12-27T21:25:53.988Z,50.80
2018-12-27T21:28:23.856Z,43.37
2018-12-27T21:30:53.561Z,44.20
2018-12-27T21:33:23.238Z,42.60
2018-12-27T21:35:52.912Z,47.80
2018-12-27T21:38:22.581Z,42.53
2018-12-27T21:40:52.189Z,36.57
2018-12-27T21:43:24.181Z,41.93
2018-12-27T21:45:53.994Z,31.87
2018-12-27T21:48:23.689Z,33.53
2018-12-27T21:50:53.417Z,29.20
2018-12-27T21:53:23.134Z,35.40
2018-12-27T21:55:52.799Z,31.87
2018-12-27T21:58:22.493Z,23.30
2018-12-27T22:00:52.406Z,21.07
2018-12-27T22:03:22.079Z,22.53
2018-12-27T22:05:51.790Z,16.60
2018-12-27T22:08:28.514Z,17.93
2018-12-27T22:10:55.490Z,17.03
2018-12-27T22:13:25.162Z,15.77
2018-12-27T22:15:54.801Z,15.60
2018-12-27T22:18:24.396Z,10.37
2018-12-27T22:20:54.019Z,14.30
2018-12-27T22:23:23.629Z,11.83
2018-12-27T22:25:53.328Z,11.37
2018-12-27T22:28:22.948Z,13.30
2018-12-27T22:30:52.639Z,12.93
2018-12-27T22:33:22.301Z,12.80
2018-12-27T22:35:51.997Z,11.23
2018-12-27T22:38:22.064Z,9.87
2018-12-27T22:40:51.744Z,9.30
2018-12-27T22:43:21.618Z,6.70
2018-12-27T22:45:51.304Z,9.30
2018-12-27T22:48:21.082Z,7.50
2018-12-27T22:50:54.010Z,8.20
2018-12-27T22:53:23.649Z,9.73
2018-12-27T22:55:56.915Z,6.77
2018-12-27T22:58:26.530Z,13.43
2018-12-27T23:00:57.226Z,12.83
2018-12-27T23:03:26.868Z,12.33
2018-12-27T23:05:56.563Z,9.53
2018-12-27T23:08:26.274Z,8.87
2018-12-27T23:10:56.020Z,12.83
2018-12-27T23:13:25.719Z,13.87
2018-12-27T23:15:55.450Z,14.07
2018-12-27T23:18:25.118Z,12.57
2018-12-27T23:20:54.829Z,11.40
2018-12-27T23:23:24.620Z,10.37
2018-12-27T23:25:54.249Z,12.63
2018-12-27T23:28:23.874Z,12.30
2018-12-27T23:30:53.547Z,9.30
2018-12-27T23:33:23.196Z,10.90
2018-12-27T23:35:52.921Z,12.00
2018-12-27T23:38:22.645Z,9.90
2018-12-27T23:40:52.411Z,10.00
2018-12-27T23:43:22.026Z,11.00
2018-12-27T23:45:51.714Z,8.20
2018-12-27T23:48:27.459Z,10.40
2018-12-27T23:51:06.227Z,9.87
2018-12-27T23:53:35.888Z,10.73
2018-12-27T23:56:05.590Z,15.10
2018-12-27T23:58:35.241Z,11.40
